createdAt,value
2023-04-13T00:01:01.791Z,100.00
2023-04-13T00:03:34.545Z,100.00
2023-04-13T00:06:09.897Z,100.00
2023-04-13T00:08:44.018Z,100.00
2023-04-13T00:11:18.388Z,100.00
2023-04-13T00:13:51.118Z,100.00
2023-04-13T00:16:26.004Z,100.00
2023-04-13T00:18:59.756Z,100.00
2023-04-13T00:21:34.113Z,100.00
2023-04-13T00:24:08.000Z,100.00
2023-04-13T00:26:41.628Z,100.00
2023-04-13T00:29:15.039Z,100.00
2023-04-13T00:31:48.623Z,100.00
2023-04-13T00:34:21.431Z,100.00
2023-04-13T00:36:54.726Z,100.00
2023-04-13T00:39:30.761Z,100.00
2023-04-13T00:42:03.898Z,100.00
2023-04-13T00:44:37.935Z,100.00
2023-04-13T00:47:10.697Z,100.00
2023-04-13T00:49:44.376Z,100.00
2023-04-13T00:52:17.083Z,100.00
2023-04-13T00:54:51.775Z,100.00
2023-04-13T00:57:25.457Z,100.00
2023-04-13T00:59:59.082Z,100.00
2023-04-13T01:02:32.976Z,100.00
2023-04-13T01:05:07.002Z,100.00
2023-04-13T01:08:17.714Z,100.00
2023-04-13T01:10:58.923Z,100.00
2023-04-13T01:13:45.530Z,100.00
2023-04-13T01:16:24.747Z,100.00
2023-04-13T01:18:57.542Z,100.00
2023-04-13T01:21:31.443Z,100.00
2023-04-13T01:24:21.023Z,100.00
2023-04-13T01:27:21.204Z,100.00
2023-04-13T01:29:57.831Z,100.00
2023-04-13T01:32:30.975Z,100.00
2023-04-13T01:35:04.466Z,100.00
2023-04-13T01:37:38.696Z,100.00
2023-04-13T01:40:13.795Z,100.00
2023-04-13T01:42:48.734Z,100.00
2023-04-13T01:45:29.955Z,100.00
2023-04-13T01:48:13.753Z,100.00
2023-04-13T01:50:55.749Z,100.00
2023-04-13T01:53:35.839Z,100.00
2023-04-13T01:56:09.425Z,100.00
2023-04-13T01:58:42.609Z,100.00
2023-04-13T02:01:18.155Z,100.00
2023-04-13T02:03:51.714Z,100.00
2023-04-13T02:06:25.210Z,100.00
2023-04-13T02:08:57.983Z,100.00
2023-04-13T02:11:31.682Z,100.00
2023-04-13T02:14:06.443Z,100.00
2023-04-13T02:16:39.719Z,100.00
2023-04-13T02:19:12.486Z,100.00
2023-04-13T02:21:46.375Z,100.00
2023-04-13T02:24:20.866Z,100.00
2023-04-13T02:26:54.527Z,100.00
2023-04-13T02:29:27.192Z,100.00
2023-04-13T02:32:00.457Z,100.00
2023-04-13T02:34:34.194Z,100.00
2023-04-13T02:37:08.190Z,100.00
2023-04-13T02:39:41.402Z,100.00
2023-04-13T02:42:15.570Z,100.00
2023-04-13T02:44:50.139Z,100.00
2023-04-13T02:47:23.871Z,100.00
2023-04-13T02:49:57.397Z,100.00
2023-04-13T02:52:31.645Z,100.00
2023-04-13T02:55:09.065Z,100.00
2023-04-13T02:57:50.118Z,100.00
2023-04-13T03:00:24.081Z,100.00
2023-04-13T03:03:00.470Z,100.00
2023-04-13T03:05:35.853Z,100.00
2023-04-13T03:08:10.324Z,100.00
2023-04-13T03:10:45.399Z,100.00
2023-04-13T03:13:17.887Z,100.00
2023-04-13T03:15:51.484Z,100.00
2023-04-13T03:18:24.152Z,100.00
2023-04-13T03:20:57.035Z,100.00
2023-04-13T03:23:31.812Z,100.00
2023-04-13T03:26:05.174Z,100.00
2023-04-13T03:28:37.961Z,100.00
2023-04-13T03:31:21.588Z,100.00
2023-04-13T03:33:58.785Z,100.00
2023-04-13T03:36:32.053Z,100.00
2023-04-13T03:39:05.712Z,100.00
2023-04-13T03:41:40.751Z,100.00
2023-04-13T03:44:13.759Z,100.00
2023-04-13T03:46:47.435Z,100.00
2023-04-13T03:49:34.938Z,100.00
2023-04-13T03:52:07.535Z,100.00
2023-04-13T03:54:42.184Z,100.00
2023-04-13T03:57:14.683Z,100.00
2023-04-13T03:59:48.124Z,100.00
2023-04-13T04:02:22.577Z,100.00
2023-04-13T04:04:56.202Z,100.00
2023-04-13T04:07:29.167Z,100.00
2023-04-13T04:10:02.745Z,100.00
2023-04-13T04:12:36.410Z,100.00
2023-04-13T04:15:11.670Z,100.00
2023-04-13T04:17:46.237Z,100.00
2023-04-13T04:20:19.149Z,100.00
2023-04-13T04:22:53.805Z,100.00
2023-04-13T04:25:27.699Z,100.00
2023-04-13T04:28:01.991Z,100.00
2023-04-13T04:30:35.290Z,100.00
2023-04-13T04:33:09.044Z,100.00
2023-04-13T04:35:44.339Z,100.00
2023-04-13T04:38:18.265Z,100.00
2023-04-13T04:40:53.611Z,100.00
2023-04-13T04:43:27.337Z,100.00
2023-04-13T04:46:02.396Z,100.00
2023-04-13T04:48:37.784Z,100.00
2023-04-13T04:51:11.773Z,100.00
2023-04-13T04:53:44.551Z,100.00
2023-04-13T04:56:17.389Z,100.00
2023-04-13T04:58:52.802Z,100.00
2023-04-13T05:01:27.471Z,100.00
2023-04-13T05:04:02.201Z,100.00
2023-04-13T05:06:36.857Z,100.00
2023-04-13T05:09:11.016Z,100.00
2023-04-13T05:11:44.443Z,100.00
2023-04-13T05:14:17.710Z,100.00
2023-04-13T05:16:51.539Z,100.00
2023-04-13T05:19:26.356Z,100.00
2023-04-13T05:22:02.418Z,100.00
2023-04-13T05:24:37.069Z,100.00
2023-04-13T05:27:12.165Z,100.00
2023-04-13T05:29:47.585Z,100.00
2023-04-13T05:32:22.362Z,100.00
2023-04-13T05:34:56.516Z,100.00
2023-04-13T05:37:31.419Z,100.00
2023-04-13T05:40:05.829Z,100.00
2023-04-13T05:42:38.588Z,100.00
2023-04-13T05:45:13.371Z,100.00
2023-04-13T05:47:46.773Z,100.00
2023-04-13T05:50:19.417Z,100.00
2023-04-13T05:52:51.817Z,100.00
2023-04-13T05:55:25.853Z,100.00
2023-04-13T05:58:01.991Z,100.00
2023-04-13T06:00:34.589Z,100.00
2023-04-13T06:03:09.731Z,100.00
2023-04-13T06:05:43.634Z,100.00
2023-04-13T06:08:17.507Z,100.00
2023-04-13T06:10:50.753Z,100.00
2023-04-13T06:13:23.399Z,100.00
2023-04-13T06:15:57.276Z,100.00
2023-04-13T06:18:30.158Z,100.00
2023-04-13T06:21:03.230Z,100.00
2023-04-13T06:23:35.926Z,100.00
2023-04-13T06:26:10.438Z,100.00
2023-04-13T06:28:45.470Z,100.00
2023-04-13T06:31:21.250Z,100.00
2023-04-13T06:33:55.062Z,100.00
2023-04-13T06:36:29.538Z,100.00
2023-04-13T06:39:04.604Z,100.00
2023-04-13T06:41:38.495Z,100.00
2023-04-13T06:44:16.362Z,100.00
2023-04-13T06:47:00.032Z,100.00
2023-04-13T06:49:37.223Z,100.00
2023-04-13T06:52:10.840Z,100.00
2023-04-13T06:54:44.296Z,100.00
2023-04-13T06:57:19.116Z,100.00
2023-04-13T06:59:51.804Z,100.00
2023-04-13T07:02:28.255Z,100.00
2023-04-13T07:05:02.759Z,100.00
2023-04-13T07:07:36.481Z,100.00
2023-04-13T07:10:10.736Z,100.00
2023-04-13T07:12:43.824Z,100.00
2023-04-13T07:15:17.222Z,100.00
2023-04-13T07:17:50.135Z,100.00
2023-04-13T07:20:23.215Z,100.00
2023-04-13T07:22:56.523Z,100.00
2023-04-13T07:25:29.423Z,100.00
2023-04-13T07:28:02.158Z,100.00
2023-04-13T07:30:34.815Z,100.00
2023-04-13T07:33:08.231Z,100.00
2023-04-13T07:35:41.384Z,100.00
2023-04-13T07:38:16.686Z,100.00
2023-04-13T07:40:49.071Z,100.00
2023-04-13T07:43:24.142Z,100.00
2023-04-13T07:45:58.853Z,100.00
2023-04-13T07:48:31.415Z,100.00
2023-04-13T07:51:06.337Z,100.00
2023-04-13T07:53:40.085Z,100.00
2023-04-13T07:56:13.018Z,100.00
2023-04-13T07:58:47.555Z,100.00
2023-04-13T08:01:21.701Z,100.00
2023-04-13T08:03:55.339Z,100.00
2023-04-13T08:06:30.313Z,100.00
2023-04-13T08:09:03.716Z,100.00
2023-04-13T08:11:36.392Z,100.00
2023-04-13T08:14:12.016Z,100.00
2023-04-13T08:16:46.874Z,100.00
2023-04-13T08:19:19.484Z,100.00
2023-04-13T08:21:53.634Z,100.00
2023-04-13T08:24:27.585Z,100.00
2023-04-13T08:27:00.408Z,100.00
2023-04-13T08:29:33.401Z,100.00
2023-04-13T08:32:07.555Z,100.00
2023-04-13T08:34:40.624Z,99.93
2023-04-13T08:37:14.855Z,99.62
2023-04-13T08:39:49.156Z,99.89
2023-04-13T08:42:23.720Z,100.00
2023-04-13T08:45:02.163Z,99.06
2023-04-13T08:47:36.042Z,98.77
2023-04-13T08:50:09.706Z,98.06
2023-04-13T08:52:46.819Z,98.15
2023-04-13T08:55:20.862Z,97.66
2023-04-13T08:57:54.320Z,96.95
2023-04-13T09:00:28.573Z,96.43
2023-04-13T09:03:06.655Z,95.54
2023-04-13T09:05:41.670Z,96.07
2023-04-13T09:08:17.111Z,94.80
2023-04-13T09:10:52.151Z,93.87
2023-04-13T09:13:29.104Z,93.54
2023-04-13T09:16:08.831Z,92.81
2023-04-13T09:18:56.422Z,91.55
2023-04-13T09:21:43.991Z,91.34
2023-04-13T09:24:16.547Z,91.43
2023-04-13T09:26:51.364Z,91.76
2023-04-13T09:29:24.277Z,91.87
2023-04-13T09:31:57.486Z,92.31
2023-04-13T09:34:30.852Z,91.53
2023-04-13T09:37:14.185Z,92.31
2023-04-13T09:39:48.149Z,91.49
2023-04-13T09:42:21.238Z,91.31
2023-04-13T09:44:59.246Z,91.60
2023-04-13T09:47:41.444Z,91.92
2023-04-13T09:50:27.036Z,91.68
2023-04-13T09:53:03.000Z,91.68
2023-04-13T09:55:38.372Z,92.10
2023-04-13T09:58:17.849Z,92.54
2023-04-13T10:00:51.263Z,92.67
2023-04-13T10:03:24.666Z,92.44
2023-04-13T10:06:00.033Z,92.85
2023-04-13T10:08:38.273Z,92.44
2023-04-13T10:11:16.399Z,91.25
2023-04-13T10:13:57.181Z,90.80
2023-04-13T10:17:09.518Z,90.79
2023-04-13T10:19:48.163Z,90.28
2023-04-13T10:22:22.968Z,90.84
2023-04-13T10:24:57.008Z,90.99
2023-04-13T10:27:29.771Z,91.07
2023-04-13T10:30:03.800Z,91.04
2023-04-13T10:32:36.939Z,91.21
2023-04-13T10:35:17.282Z,91.51
2023-04-13T10:38:00.548Z,92.12
2023-04-13T10:40:48.652Z,92.05
2023-04-13T10:44:07.935Z,91.23
2023-04-13T10:46:40.737Z,91.24
2023-04-13T10:49:13.407Z,91.82
2023-04-13T10:51:47.808Z,92.39
2023-04-13T10:54:20.558Z,92.88
2023-04-13T10:57:06.717Z,92.85
2023-04-13T10:59:59.189Z,93.18
2023-04-13T11:02:34.284Z,93.89
2023-04-13T11:05:08.582Z,93.76
2023-04-13T11:07:44.889Z,93.84
2023-04-13T11:10:28.839Z,93.55
2023-04-13T11:13:02.259Z,92.95
2023-04-13T11:15:35.973Z,92.46
2023-04-13T11:18:08.809Z,90.81
2023-04-13T11:20:42.101Z,89.72
2023-04-13T11:23:19.721Z,88.51
2023-04-13T11:25:58.646Z,87.56
2023-04-13T11:28:42.305Z,87.82
2023-04-13T11:31:15.469Z,88.87
2023-04-13T11:33:51.613Z,89.52
2023-04-13T11:36:24.389Z,90.58
2023-04-13T11:38:57.530Z,91.27
2023-04-13T11:41:32.152Z,92.03
2023-04-13T11:44:04.127Z,92.75
2023-04-13T11:46:37.469Z,93.85
2023-04-13T11:49:10.278Z,94.15
2023-04-13T11:51:44.500Z,94.08
2023-04-13T11:54:18.813Z,94.22
2023-04-13T11:56:51.298Z,94.82
2023-04-13T11:59:26.459Z,95.30
2023-04-13T12:02:03.215Z,95.48
